Time;durP1;ratioP1;P1;durP2;ratioP2;P2;SDS_P1;SDS_P2;PMS_P1;PMS_P2;Temp;Humidity;BMP_temperature;BMP_pressure;BME280_temperature;BME280_humidity;BME280_pressure;Samples;Min_cycle;Max_cycle;Signal;HPM_P1;HPM_P2
2023/01/10 00:00:39;;;;;;;10.60;3.17;;;5.20;99.90;;;;;;5103065;28;20082;-69
2023/01/10 00:03:07;;;;;;;12.07;3.27;;;5.10;99.90;;;;;;5095310;28;20194;-69
2023/01/10 00:05:37;;;;;;;9.67;3.20;;;5.00;99.90;;;;;;5097217;28;20790;-69
2023/01/10 00:08:05;;;;;;;8.93;3.10;;;5.00;99.90;;;;;;5095359;28;20048;-69
2023/01/10 00:10:32;;;;;;;12.50;4.27;;;5.00;99.90;;;;;;5077779;28;20044;-70
2023/01/10 00:15:42;;;;;;;11.73;3.47;;;5.00;99.90;;;;;;5094569;28;20267;-70
2023/01/10 00:18:08;;;;;;;11.93;3.13;;;4.90;99.90;;;;;;5093868;28;20044;-69
2023/01/10 00:20:34;;;;;;;15.23;3.83;;;4.90;99.90;;;;;;5095136;28;20040;-69
2023/01/10 00:23:00;;;;;;;8.63;3.23;;;4.90;99.90;;;;;;5093442;28;20120;-69
2023/01/10 00:25:26;;;;;;;16.90;3.67;;;4.90;99.90;;;;;;5092519;28;20053;-69
2023/01/10 00:28:18;;;;;;;12.53;3.20;;;4.90;99.90;;;;;;5095411;28;20047;-69
2023/01/10 00:30:41;;;;;;;8.90;3.43;;;4.90;99.90;;;;;;5093933;28;20584;-69
2023/01/10 00:33:07;;;;;;;11.90;3.80;;;4.80;99.90;;;;;;5094644;28;20044;-69
2023/01/10 00:35:33;;;;;;;14.97;3.77;;;4.80;99.90;;;;;;5095379;28;20040;-69
2023/01/10 00:38:04;;;;;;;14.30;4.17;;;4.80;99.90;;;;;;5075477;28;20395;-69
2023/01/10 00:40:31;;;;;;;17.50;4.60;;;4.80;99.90;;;;;;5093719;28;20077;-69
2023/01/10 00:45:44;;;;;;;16.53;3.80;;;4.90;99.90;;;;;;5095194;28;20044;-69
2023/01/10 00:48:10;;;;;;;13.63;3.80;;;4.90;99.90;;;;;;5093849;28;20044;-69
2023/01/10 00:50:36;;;;;;;15.23;3.70;;;5.00;99.90;;;;;;5092637;28;20055;-69
2023/01/10 00:53:02;;;;;;;16.13;3.90;;;5.00;99.90;;;;;;5094465;28;20040;-70
2023/01/10 00:55:28;;;;;;;14.47;3.80;;;5.00;99.90;;;;;;5092322;28;20125;-69
2023/01/10 00:57:54;;;;;;;19.13;3.87;;;5.00;99.90;;;;;;5094753;28;20558;-70
2023/01/10 01:00:19;;;;;;;14.07;4.00;;;5.10;99.90;;;;;;5092241;28;20052;-69
2023/01/10 01:02:45;;;;;;;18.43;4.40;;;5.00;99.90;;;;;;5090974;28;20115;-69
2023/01/10 01:05:11;;;;;;;13.07;3.93;;;5.00;99.90;;;;;;5095180;28;20097;-69
2023/01/10 01:07:37;;;;;;;13.07;4.17;;;5.10;99.90;;;;;;5092546;28;20556;-70
2023/01/10 01:12:46;;;;;;;13.33;4.10;;;5.10;99.90;;;;;;5090632;28;20048;-69
2023/01/10 01:15:12;;;;;;;14.07;3.80;;;5.10;99.90;;;;;;5076934;28;20089;-69
2023/01/10 01:17:38;;;;;;;15.87;4.03;;;5.10;99.90;;;;;;5076031;28;20040;-69
2023/01/10 01:20:04;;;;;;;15.07;3.40;;;5.10;99.90;;;;;;5060007;28;20512;-70
2023/01/10 01:22:30;;;;;;;20.67;4.27;;;5.20;99.90;;;;;;5097257;28;20043;-69
2023/01/10 01:24:56;;;;;;;17.40;4.00;;;5.20;99.90;;;;;;5075405;28;20070;-69
2023/01/10 01:27:21;;;;;;;15.33;4.60;;;5.30;99.90;;;;;;5097008;28;20060;-69
2023/01/10 01:29:47;;;;;;;17.10;4.03;;;5.30;99.90;;;;;;5097026;28;20505;-69
2023/01/10 01:32:13;;;;;;;17.90;4.40;;;5.30;99.90;;;;;;5099031;28;20024;-69
2023/01/10 01:34:38;;;;;;;13.17;3.83;;;5.30;99.90;;;;;;5096590;28;20586;-69
2023/01/10 01:37:04;;;;;;;19.27;4.07;;;5.30;99.90;;;;;;5096699;28;20091;-69
2023/01/10 01:39:30;;;;;;;18.57;4.70;;;5.30;99.90;;;;;;5097265;28;20039;-69
2023/01/10 01:41:59;;;;;;;16.03;4.63;;;5.40;99.90;;;;;;5095250;28;20068;-69
2023/01/10 01:44:33;;;;;;;22.67;4.40;;;5.40;99.90;;;;;;5097393;28;20047;-69
2023/01/10 01:47:06;;;;;;;17.70;3.80;;;5.40;99.90;;;;;;5096816;28;20059;-69
2023/01/10 01:49:37;;;;;;;24.70;4.57;;;5.40;99.90;;;;;;5096961;28;20097;-70
2023/01/10 01:52:09;;;;;;;20.50;4.77;;;5.50;99.90;;;;;;5096651;28;20055;-70
2023/01/10 01:54:35;;;;;;;15.30;4.67;;;5.50;99.90;;;;;;5097326;28;20040;-69
2023/01/10 01:57:07;;;;;;;20.13;4.30;;;5.50;99.90;;;;;;5098049;28;20040;-69
2023/01/10 01:59:37;;;;;;;18.75;4.38;;;5.40;99.90;;;;;;5097080;28;20047;-69
2023/01/10 02:02:10;;;;;;;18.37;4.77;;;5.40;99.90;;;;;;5098295;28;20032;-69
2023/01/10 02:04:53;;;;;;;17.27;4.27;;;5.40;99.90;;;;;;5097175;28;20051;-69
2023/01/10 02:07:19;;;;;;;16.47;3.97;;;5.40;99.90;;;;;;5093182;28;20048;-69
2023/01/10 02:09:52;;;;;;;11.37;3.80;;;5.30;99.90;;;;;;5094414;28;20032;-69
2023/01/10 02:12:18;;;;;;;;;;;5.30;99.90;;;;;;5096159;28;20044;-70
2023/01/10 02:14:45;;;;;;;15.20;3.83;;;5.20;99.90;;;;;;5098175;28;20010;-69
2023/01/10 02:17:12;;;;;;;15.47;3.83;;;5.20;99.90;;;;;;5086516;28;20048;-70
2023/01/10 02:19:55;;;;;;;14.80;3.97;;;5.10;99.90;;;;;;5097384;28;20066;-69
2023/01/10 02:22:38;;;;;;;15.77;4.30;;;5.10;99.90;;;;;;5098189;28;20104;-69
2023/01/10 02:25:22;;;;;;;13.70;4.10;;;5.10;99.90;;;;;;5096842;28;20052;-69
2023/01/10 02:28:06;;;;;;;14.83;3.90;;;5.00;99.90;;;;;;5094865;28;20048;-69
2023/01/10 02:30:40;;;;;;;14.13;3.90;;;4.90;99.90;;;;;;5098224;28;20052;-69
2023/01/10 02:33:38;;;;;;;14.20;3.87;;;4.90;99.90;;;;;;5093371;28;20059;-69
2023/01/10 02:36:15;;;;;;;17.10;3.97;;;4.90;99.90;;;;;;5097616;28;20063;-69
2023/01/10 02:38:49;;;;;;;19.47;4.40;;;4.90;99.90;;;;;;5096097;28;20048;-69
2023/01/10 02:41:18;;;;;;;20.13;4.63;;;4.80;99.90;;;;;;5096960;28;20055;-69
2023/01/10 02:43:59;;;;;;;16.97;4.30;;;4.80;99.90;;;;;;5097248;28;20062;-69
2023/01/10 02:46:29;;;;;;;19.30;4.20;;;4.80;99.90;;;;;;5077382;28;20067;-69
2023/01/10 02:48:55;;;;;;;16.23;4.10;;;4.80;99.90;;;;;;5097205;28;20118;-69
2023/01/10 02:51:27;;;;;;;15.23;4.03;;;4.80;99.90;;;;;;5094256;28;20078;-69
2023/01/10 02:53:56;;;;;;;17.10;4.10;;;4.90;99.90;;;;;;5096141;28;20047;-70
2023/01/10 02:56:44;;;;;;;19.47;4.60;;;4.90;99.90;;;;;;5096745;28;20108;-69
2023/01/10 02:59:43;;;;;;;20.57;4.10;;;4.90;99.90;;;;;;5084796;28;20045;-70
2023/01/10 03:02:27;;;;;;;18.87;4.30;;;4.90;99.90;;;;;;5095648;28;20047;-69
2023/01/10 03:04:58;;;;;;;14.57;4.40;;;4.90;99.90;;;;;;5096072;28;20131;-70
2023/01/10 03:07:35;;;;;;;19.50;4.38;;;5.00;99.90;;;;;;5093403;28;20055;-70
2023/01/10 03:10:11;;;;;;;16.30;4.63;;;5.00;99.90;;;;;;5096336;28;20036;-69
2023/01/10 03:12:50;;;;;;;23.07;4.50;;;5.00;99.90;;;;;;5094949;28;20510;-70
2023/01/10 03:15:20;;;;;;;18.77;4.33;;;5.10;99.90;;;;;;5093884;28;20044;-70
2023/01/10 03:17:50;;;;;;;20.23;4.33;;;5.20;99.90;;;;;;5093878;28;20044;-69
2023/01/10 03:20:19;;;;;;;15.93;4.50;;;5.20;99.90;;;;;;5094469;28;20055;-70
2023/01/10 03:22:47;;;;;;;18.27;4.23;;;5.20;99.90;;;;;;5092798;28;20048;-69
2023/01/10 03:25:15;;;;;;;17.93;4.30;;;5.20;99.90;;;;;;5093588;28;20068;-69
2023/01/10 03:27:56;;;;;;;15.07;4.73;;;5.20;99.90;;;;;;5096681;28;20079;-69
2023/01/10 03:30:50;;;;;;;18.03;4.80;;;5.20;99.90;;;;;;5095479;28;20032;-69
2023/01/10 03:33:19;;;;;;;16.43;4.73;;;5.20;99.90;;;;;;5092608;28;20074;-69
2023/01/10 03:35:51;;;;;;;18.47;4.37;;;5.30;99.90;;;;;;5096948;28;20065;-69
2023/01/10 03:38:36;;;;;;;13.98;4.00;;;5.30;99.90;;;;;;5086438;28;20041;-70
2023/01/10 03:41:37;;;;;;;13.77;4.43;;;5.20;99.90;;;;;;5097472;28;20460;-70
2023/01/10 03:44:45;;;;;;;19.13;4.17;;;5.20;99.90;;;;;;5063219;28;20056;-69
2023/01/10 03:47:24;;;;;;;15.17;4.47;;;5.30;99.90;;;;;;5093890;28;20040;-69
2023/01/10 03:49:56;;;;;;;20.30;5.60;;;5.30;99.90;;;;;;5076819;28;20050;-70
2023/01/10 03:52:23;;;;;;;15.00;4.20;;;5.30;99.90;;;;;;5095816;28;20086;-69
2023/01/10 03:54:50;;;;;;;16.97;4.70;;;5.20;99.90;;;;;;5091069;28;20330;-69
2023/01/10 03:57:18;;;;;;;22.10;4.47;;;5.30;99.90;;;;;;5096145;28;20052;-69
2023/01/10 03:59:44;;;;;;;17.57;4.50;;;5.30;99.90;;;;;;5092909;28;20108;-69
2023/01/10 04:02:10;;;;;;;18.50;4.60;;;5.30;99.90;;;;;;5096185;28;20439;-69
2023/01/10 04:04:36;;;;;;;18.73;4.50;;;5.30;99.90;;;;;;5094825;28;20047;-69
2023/01/10 04:07:01;;;;;;;16.87;4.47;;;5.40;99.90;;;;;;5095380;28;20083;-69
2023/01/10 04:09:27;;;;;;;19.00;5.47;;;5.30;99.90;;;;;;5094049;28;20051;-69
2023/01/10 04:11:53;;;;;;;17.50;4.93;;;5.40;99.90;;;;;;5074541;28;20044;-69
2023/01/10 04:14:18;;;;;;;15.07;4.50;;;5.40;99.90;;;;;;5096508;28;20044;-70
2023/01/10 04:16:44;;;;;;;21.10;5.30;;;5.40;99.90;;;;;;5094493;28;20349;-69
2023/01/10 04:19:10;;;;;;;19.03;5.60;;;5.40;99.90;;;;;;5094263;28;20471;-70
2023/01/10 04:21:35;;;;;;;16.20;4.77;;;5.40;99.90;;;;;;5093294;28;20563;-69
2023/01/10 04:24:01;;;;;;;17.53;3.93;;;5.40;99.90;;;;;;5095130;28;20523;-69
2023/01/10 04:26:27;;;;;;;18.37;4.97;;;5.40;99.90;;;;;;5100121;28;20044;-69
2023/01/10 04:28:52;;;;;;;21.80;4.90;;;5.40;99.90;;;;;;5094253;28;20100;-70
2023/01/10 04:31:18;;;;;;;20.60;5.40;;;5.40;99.90;;;;;;5077766;28;20118;-70
2023/01/10 04:33:44;;;;;;;15.13;4.77;;;5.30;99.90;;;;;;5093869;28;20054;-70
2023/01/10 04:36:10;;;;;;;20.00;4.70;;;5.30;99.90;;;;;;5094118;28;20036;-70
2023/01/10 04:38:35;;;;;;;19.17;4.73;;;5.30;99.90;;;;;;5092729;28;20438;-69
2023/01/10 04:41:01;;;;;;;17.60;4.67;;;5.30;99.90;;;;;;5094660;28;20146;-70
2023/01/10 04:43:27;;;;;;;20.10;4.90;;;5.30;99.90;;;;;;5095020;28;20048;-69
2023/01/10 04:45:52;;;;;;;14.97;4.47;;;5.30;99.90;;;;;;5093963;28;20040;-70
2023/01/10 04:48:18;;;;;;;20.47;5.30;;;5.30;99.90;;;;;;5095237;28;20043;-69
2023/01/10 04:50:52;;;;;;;21.13;4.60;;;5.30;99.90;;;;;;5092503;28;20051;-69
2023/01/10 04:53:18;;;;;;;17.33;5.27;;;5.40;99.90;;;;;;5095693;28;20048;-69
2023/01/10 04:55:44;;;;;;;17.50;5.13;;;5.40;99.90;;;;;;5094043;28;20036;-69
2023/01/10 04:58:10;;;;;;;17.33;5.13;;;5.40;99.90;;;;;;5095476;28;20322;-69
2023/01/10 05:00:36;;;;;;;19.17;5.70;;;5.40;99.90;;;;;;5095935;28;20124;-69
2023/01/10 05:03:02;;;;;;;20.93;5.00;;;5.40;99.90;;;;;;5096832;28;20051;-69
2023/01/10 05:05:28;;;;;;;19.03;5.40;;;5.40;99.90;;;;;;5099912;28;20036;-69
2023/01/10 05:07:53;;;;;;;18.03;5.73;;;5.40;99.90;;;;;;5097507;28;20046;-69
2023/01/10 05:10:19;;;;;;;16.10;5.30;;;5.40;99.90;;;;;;5098613;28;20725;-69
2023/01/10 05:12:45;;;;;;;21.47;5.57;;;5.50;99.90;;;;;;5084332;28;20098;-69
2023/01/10 05:15:11;;;;;;;14.97;5.53;;;5.40;99.90;;;;;;5097012;28;20044;-69
2023/01/10 05:17:37;;;;;;;25.63;5.63;;;5.40;99.90;;;;;;5098624;28;20069;-69
2023/01/10 05:20:03;;;;;;;17.93;5.20;;;5.40;99.90;;;;;;5096388;28;20123;-69
2023/01/10 05:22:29;;;;;;;24.80;5.53;;;5.40;99.90;;;;;;5099471;28;20036;-69
2023/01/10 05:24:54;;;;;;;23.80;5.33;;;5.40;99.90;;;;;;5097106;28;20197;-69
2023/01/10 05:27:20;;;;;;;19.43;5.67;;;5.40;99.90;;;;;;5097425;28;20058;-70
2023/01/10 05:29:46;;;;;;;18.37;5.13;;;5.40;99.90;;;;;;5096700;28;20050;-70
2023/01/10 05:32:11;;;;;;;17.00;5.60;;;5.40;99.90;;;;;;5098740;28;20499;-70
2023/01/10 05:34:37;;;;;;;17.43;5.40;;;5.40;99.90;;;;;;5098005;28;20100;-69
2023/01/10 05:37:03;;;;;;;19.83;4.80;;;5.50;99.90;;;;;;5097977;28;20028;-70
2023/01/10 05:39:28;;;;;;;26.07;5.27;;;5.50;99.90;;;;;;5096791;28;20137;-69
2023/01/10 05:41:54;;;;;;;19.00;5.67;;;5.50;99.90;;;;;;5095155;28;20055;-70
2023/01/10 05:44:20;;;;;;;20.07;5.03;;;5.50;99.90;;;;;;5097593;28;20044;-70
2023/01/10 05:46:45;;;;;;;26.87;5.70;;;5.50;99.90;;;;;;5093903;28;20063;-70
2023/01/10 05:49:11;;;;;;;26.30;5.67;;;5.50;99.90;;;;;;5097373;28;20203;-70
2023/01/10 05:51:37;;;;;;;24.17;5.03;;;5.50;99.90;;;;;;5095576;28;20036;-70
2023/01/10 05:54:03;;;;;;;19.77;5.30;;;5.60;99.90;;;;;;5096597;28;20057;-70
2023/01/10 05:56:29;;;;;;;22.47;5.73;;;5.60;99.90;;;;;;5097906;28;20167;-70
2023/01/10 05:58:55;;;;;;;21.57;5.30;;;5.70;99.90;;;;;;5097303;28;20036;-69
2023/01/10 06:01:21;;;;;;;23.10;5.80;;;5.70;99.90;;;;;;5097168;28;20051;-73
2023/01/10 06:03:47;;;;;;;24.23;5.70;;;5.70;99.90;;;;;;5092845;28;20471;-70
2023/01/10 06:06:13;;;;;;;21.90;4.90;;;5.70;99.90;;;;;;5101779;28;20096;-69
2023/01/10 06:08:39;;;;;;;20.30;5.67;;;5.70;99.90;;;;;;5078300;28;20051;-69
2023/01/10 06:11:06;;;;;;;25.27;6.20;;;5.80;99.90;;;;;;5092188;28;20036;-70
2023/01/10 06:13:32;;;;;;;22.03;5.67;;;5.70;99.90;;;;;;5095821;28;20063;-70
2023/01/10 06:15:58;;;;;;;22.63;6.50;;;5.80;99.90;;;;;;5078536;28;20936;-70
2023/01/10 06:18:24;;;;;;;25.77;6.67;;;5.80;99.90;;;;;;5094650;28;20070;-69
2023/01/10 06:20:50;;;;;;;28.17;6.70;;;5.70;99.90;;;;;;5096144;28;20487;-69
2023/01/10 06:23:16;;;;;;;25.10;6.63;;;5.70;99.90;;;;;;5080075;28;20060;-70
2023/01/10 06:25:41;;;;;;;22.83;6.23;;;5.70;99.90;;;;;;5094118;28;20097;-69
2023/01/10 06:28:08;;;;;;;20.77;6.33;;;5.70;99.90;;;;;;5104744;28;20044;-69
2023/01/10 06:30:34;;;;;;;25.67;6.90;;;5.70;99.90;;;;;;5097140;28;20032;-69
2023/01/10 06:33:05;;;;;;;26.37;6.57;;;5.70;99.90;;;;;;5096286;28;20044;-69
2023/01/10 06:35:32;;;;;;;22.77;7.40;;;5.80;99.90;;;;;;5094950;28;20077;-69
2023/01/10 06:37:58;;;;;;;26.00;7.33;;;5.80;99.90;;;;;;5092467;28;20055;-69
2023/01/10 06:40:24;;;;;;;21.80;6.23;;;5.80;99.90;;;;;;5078769;28;20518;-69
2023/01/10 06:42:50;;;;;;;22.97;6.70;;;5.80;99.90;;;;;;5095250;28;20035;-69
2023/01/10 06:45:16;;;;;;;19.27;6.50;;;5.80;99.90;;;;;;5096093;28;20032;-69
2023/01/10 06:47:42;;;;;;;25.03;6.17;;;5.80;99.90;;;;;;5078632;28;20055;-69
2023/01/10 06:50:09;;;;;;;24.43;6.53;;;5.70;99.90;;;;;;5095717;28;20051;-69
2023/01/10 06:52:35;;;;;;;24.93;6.60;;;5.70;99.90;;;;;;5096866;28;20410;-69
2023/01/10 06:55:00;;;;;;;23.67;6.70;;;5.60;99.90;;;;;;5094923;28;20067;-69
2023/01/10 06:57:27;;;;;;;20.87;6.73;;;5.60;99.90;;;;;;5095774;28;20032;-69
2023/01/10 06:59:53;;;;;;;21.03;6.07;;;5.50;99.90;;;;;;5095277;28;20074;-69
2023/01/10 07:02:19;;;;;;;21.60;6.47;;;5.50;99.90;;;;;;5095501;28;20072;-69
2023/01/10 07:04:46;;;;;;;21.00;5.97;;;5.50;99.90;;;;;;5095061;28;20040;-69
2023/01/10 07:07:12;;;;;;;22.97;6.90;;;5.40;99.90;;;;;;5093762;28;20461;-67
2023/01/10 07:09:38;;;;;;;22.83;7.53;;;5.40;99.90;;;;;;5097299;28;20325;-69
2023/01/10 07:12:03;;;;;;;31.73;7.70;;;5.40;99.90;;;;;;5087274;28;20070;-67
2023/01/10 07:14:29;;;;;;;28.43;8.23;;;5.40;99.90;;;;;;5087687;28;20060;-67
2023/01/10 07:16:55;;;;;;;27.23;8.40;;;5.50;99.90;;;;;;5083330;28;20079;-66
2023/01/10 07:19:21;;;;;;;26.10;8.13;;;5.50;99.90;;;;;;5086095;28;20044;-67
2023/01/10 07:21:46;;;;;;;25.67;8.30;;;5.60;99.90;;;;;;5083232;28;20060;-66
2023/01/10 07:24:12;;;;;;;26.97;9.57;;;5.60;99.90;;;;;;5082141;28;20044;-66
2023/01/10 07:26:38;;;;;;;29.37;9.77;;;5.60;99.90;;;;;;5086022;28;20047;-66
2023/01/10 07:29:04;;;;;;;29.20;10.00;;;5.70;99.90;;;;;;5084402;28;20039;-67
2023/01/10 07:31:29;;;;;;;27.17;9.60;;;5.70;99.90;;;;;;5084959;28;20142;-67
2023/01/10 07:33:55;;;;;;;23.73;8.97;;;5.80;99.90;;;;;;5083255;28;20065;-66
2023/01/10 07:36:21;;;;;;;28.00;9.00;;;5.80;99.90;;;;;;5086139;28;20044;-67
2023/01/10 07:38:46;;;;;;;35.67;9.20;;;5.80;99.90;;;;;;5083546;28;20056;-67
2023/01/10 07:41:12;;;;;;;35.93;8.70;;;5.80;99.90;;;;;;5084385;28;20052;-66
2023/01/10 07:43:38;;;;;;;22.83;9.00;;;5.80;99.90;;;;;;5091778;28;20537;-66
2023/01/10 07:46:08;;;;;;;29.43;8.17;;;5.90;99.90;;;;;;5092182;28;20025;-66
2023/01/10 07:48:35;;;;;;;30.03;8.13;;;5.90;99.90;;;;;;5094037;28;20047;-67
2023/01/10 07:51:01;;;;;;;26.40;7.83;;;5.90;99.90;;;;;;5093270;28;20602;-67
2023/01/10 07:53:28;;;;;;;26.83;8.07;;;5.90;99.90;;;;;;5095316;28;20107;-67
2023/01/10 07:55:57;;;;;;;23.57;7.97;;;5.90;99.90;;;;;;5094185;28;20133;-67
2023/01/10 07:58:23;;;;;;;25.67;7.63;;;5.90;99.90;;;;;;5094307;28;20044;-67
2023/01/10 08:00:49;;;;;;;24.23;7.53;;;5.90;99.90;;;;;;5078039;28;20315;-67
2023/01/10 08:03:16;;;;;;;21.70;7.10;;;5.90;99.90;;;;;;5095188;28;20062;-67
2023/01/10 08:05:42;;;;;;;22.57;7.03;;;6.00;99.90;;;;;;5095085;28;20433;-67
2023/01/10 08:08:10;;;;;;;27.80;6.80;;;5.90;99.90;;;;;;5094392;28;20131;-67
2023/01/10 08:10:38;;;;;;;26.10;7.30;;;6.00;99.90;;;;;;5077695;28;20173;-67
2023/01/10 08:13:04;;;;;;;22.53;7.53;;;6.00;99.90;;;;;;5093851;28;20059;-67
2023/01/10 08:15:30;;;;;;;22.97;6.60;;;6.00;99.90;;;;;;5095684;28;20436;-67
2023/01/10 08:18:02;;;;;;;21.83;6.27;;;6.00;99.90;;;;;;5094263;28;20040;-67
2023/01/10 08:20:28;;;;;;;18.58;5.95;;;6.00;99.90;;;;;;5094710;28;20450;-67
2023/01/10 08:22:58;;;;;;;20.57;6.63;;;6.00;99.90;;;;;;5096076;28;20657;-67
2023/01/10 08:25:25;;;;;;;23.47;6.53;;;6.00;99.90;;;;;;5092040;28;20056;-67
2023/01/10 08:27:51;;;;;;;20.60;6.10;;;6.10;99.90;;;;;;5096044;28;20044;-67
2023/01/10 08:30:16;;;;;;;18.90;5.90;;;6.00;99.90;;;;;;5093441;28;20076;-67
2023/01/10 08:32:43;;;;;;;24.13;5.67;;;6.10;99.90;;;;;;5101422;28;20055;-67
2023/01/10 08:35:09;;;;;;;26.30;6.20;;;6.10;99.90;;;;;;5098071;28;20047;-67
2023/01/10 08:37:34;;;;;;;16.77;5.43;;;6.10;99.90;;;;;;5099670;28;20036;-67
2023/01/10 08:40:01;;;;;;;26.33;6.53;;;6.20;99.90;;;;;;5098769;28;20071;-67
2023/01/10 08:42:27;;;;;;;20.40;6.60;;;6.20;99.90;;;;;;5099741;28;20127;-66
2023/01/10 08:44:53;;;;;;;20.03;6.63;;;6.20;99.90;;;;;;5081497;28;20527;-67
2023/01/10 08:47:19;;;;;;;22.47;6.57;;;6.20;99.90;;;;;;5097009;28;20109;-67
2023/01/10 08:49:46;;;;;;;22.50;6.33;;;6.20;99.90;;;;;;5099046;28;20036;-67
2023/01/10 08:52:12;;;;;;;25.47;5.93;;;6.20;99.90;;;;;;5100738;28;20373;-67
2023/01/10 08:54:37;;;;;;;18.93;6.10;;;6.20;99.90;;;;;;5096579;28;20167;-67
2023/01/10 08:57:03;;;;;;;26.50;6.37;;;6.20;99.90;;;;;;5064514;28;20579;-67
2023/01/10 08:59:29;;;;;;;21.63;5.73;;;6.10;99.90;;;;;;5096184;28;20040;-67
2023/01/10 09:01:57;;;;;;;17.03;5.67;;;6.20;99.90;;;;;;5099245;28;20051;-67
2023/01/10 09:04:23;;;;;;;24.03;6.77;;;6.20;99.90;;;;;;5097670;28;20048;-67
2023/01/10 09:06:49;;;;;;;21.00;6.60;;;6.30;99.90;;;;;;5096259;28;20097;-67
2023/01/10 09:09:14;;;;;;;25.73;6.80;;;6.30;99.90;;;;;;5099214;28;20055;-67
2023/01/10 09:11:40;;;;;;;27.10;6.27;;;6.30;99.90;;;;;;5097408;28;20044;-66
2023/01/10 09:14:06;;;;;;;20.27;6.37;;;6.30;99.90;;;;;;5081152;28;20044;-67
2023/01/10 09:16:32;;;;;;;21.50;5.43;;;6.40;99.90;;;;;;5102745;28;20078;-67
2023/01/10 09:18:58;;;;;;;23.97;6.33;;;6.40;99.90;;;;;;5098961;28;20091;-67
2023/01/10 09:21:23;;;;;;;20.50;6.27;;;6.40;99.90;;;;;;5095159;28;20063;-67
2023/01/10 09:23:49;;;;;;;20.23;6.10;;;6.50;99.90;;;;;;5098238;28;20032;-67
2023/01/10 09:26:15;;;;;;;19.90;5.87;;;6.50;99.90;;;;;;5079454;28;20036;-67
2023/01/10 09:28:41;;;;;;;20.10;5.73;;;6.50;99.90;;;;;;5095876;28;20103;-67
2023/01/10 09:31:07;;;;;;;20.73;5.97;;;6.50;99.90;;;;;;5096903;28;20044;-67
2023/01/10 09:33:35;;;;;;;20.10;6.37;;;6.50;99.90;;;;;;5096227;28;20040;-67
2023/01/10 09:36:01;;;;;;;19.57;5.73;;;6.50;99.90;;;;;;5080537;28;20055;-67
2023/01/10 09:38:27;;;;;;;22.53;6.27;;;6.50;99.90;;;;;;5096130;28;20153;-67
2023/01/10 09:40:55;;;;;;;25.07;5.83;;;6.50;99.90;;;;;;5096332;28;20036;-67
2023/01/10 09:43:42;;;;;;;18.33;6.10;;;6.60;99.90;;;;;;5096823;28;20054;-67
2023/01/10 09:46:13;;;;;;;24.57;6.00;;;6.60;99.90;;;;;;5094457;28;20040;-67
2023/01/10 09:48:52;;;;;;;22.88;6.18;;;6.50;99.90;;;;;;5103962;28;20040;-67
2023/01/10 09:51:35;;;;;;;21.70;6.13;;;6.60;99.90;;;;;;5096512;28;20059;-66
2023/01/10 09:54:14;;;;;;;23.13;5.53;;;6.60;99.90;;;;;;5089608;28;20142;-67
2023/01/10 09:56:40;;;;;;;20.10;6.70;;;6.60;99.90;;;;;;5096076;28;20055;-67
2023/01/10 09:59:18;;;;;;;24.47;5.87;;;6.60;99.90;;;;;;5093932;28;20052;-67
2023/01/10 10:01:46;;;;;;;23.10;5.50;;;6.70;99.90;;;;;;5106415;28;20050;-67
2023/01/10 10:04:32;;;;;;;20.77;6.27;;;6.70;99.90;;;;;;5094373;28;20498;-67
2023/01/10 10:06:58;;;;;;;20.90;5.80;;;6.80;99.90;;;;;;5095123;28;20133;-67
2023/01/10 10:09:34;;;;;;;22.07;5.70;;;6.80;99.90;;;;;;5095308;28;20044;-67
2023/01/10 10:12:24;;;;;;;23.90;6.10;;;6.80;99.90;;;;;;5083984;28;20059;-67
2023/01/10 10:15:01;;;;;;;18.43;5.70;;;6.80;99.90;;;;;;5096822;28;20032;-67
2023/01/10 10:17:29;;;;;;;18.10;5.73;;;6.80;99.90;;;;;;5095504;28;20393;-67
2023/01/10 10:20:14;;;;;;;23.33;5.87;;;6.90;99.90;;;;;;5095840;28;20109;-67
2023/01/10 10:22:45;;;;;;;24.73;6.93;;;6.90;99.90;;;;;;5096395;28;20047;-67
2023/01/10 10:25:31;;;;;;;23.10;6.28;;;6.90;99.90;;;;;;5094770;28;20499;-67
2023/01/10 10:28:30;;;;;;;20.13;6.37;;;7.00;99.90;;;;;;5095808;28;20036;-67
2023/01/10 10:31:07;;;;;;;18.93;6.67;;;7.00;99.90;;;;;;5087662;28;20074;-68
2023/01/10 10:34:04;;;;;;;21.93;6.77;;;7.00;99.90;;;;;;5091597;28;20048;-68
2023/01/10 10:36:46;;;;;;;21.10;7.47;;;7.10;99.90;;;;;;5085553;28;20888;-68
2023/01/10 10:39:16;;;;;;;22.23;8.57;;;7.10;99.90;;;;;;5097728;28;20139;-67
2023/01/10 10:41:45;;;;;;;27.83;9.97;;;7.10;99.90;;;;;;5092212;28;20525;-68
2023/01/10 10:44:39;;;;;;;24.30;8.80;;;7.10;99.90;;;;;;5096795;28;20291;-68
2023/01/10 10:47:22;;;;;;;30.37;9.77;;;7.10;99.90;;;;;;5092926;28;20077;-68
2023/01/10 10:50:04;;;;;;;25.70;10.20;;;7.10;99.90;;;;;;5095186;28;20047;-68
2023/01/10 10:52:34;;;;;;;26.63;10.18;;;7.10;99.90;;;;;;5094544;28;20051;-67
2023/01/10 10:55:00;;;;;;;28.43;10.27;;;7.10;99.90;;;;;;5099101;28;20032;-68
2023/01/10 10:57:32;;;;;;;29.97;10.67;;;7.10;99.90;;;;;;5094178;28;20052;-68
2023/01/10 11:00:00;;;;;;;24.70;10.10;;;7.20;99.90;;;;;;5093740;28;20137;-68
2023/01/10 11:02:31;;;;;;;27.37;10.73;;;7.20;99.90;;;;;;5095404;28;20040;-67
2023/01/10 11:05:03;;;;;;;28.97;10.43;;;7.20;99.90;;;;;;5094390;28;20048;-68
2023/01/10 11:07:33;;;;;;;24.07;10.23;;;7.20;99.90;;;;;;5075880;28;20082;-68
2023/01/10 11:12:51;;;;;;;30.93;10.80;;;7.30;99.90;;;;;;5096881;28;20043;-68
2023/01/10 11:15:41;;;;;;;30.47;10.67;;;7.30;99.90;;;;;;5092501;28;20335;-68
2023/01/10 11:18:16;;;;;;;30.57;11.00;;;7.30;99.90;;;;;;5090042;28;20157;-67
2023/01/10 11:21:00;;;;;;;26.10;10.17;;;7.30;99.90;;;;;;5092890;28;20347;-68
2023/01/10 11:23:42;;;;;;;30.57;10.93;;;7.30;99.90;;;;;;5095896;28;20054;-68
2023/01/10 11:26:22;;;;;;;26.00;9.93;;;7.30;99.90;;;;;;5094845;28;20103;-68
2023/01/10 11:28:51;;;;;;;22.13;9.37;;;7.40;99.90;;;;;;5092523;28;20048;-68
2023/01/10 11:31:28;;;;;;;26.10;9.67;;;7.30;99.90;;;;;;5089265;28;20036;-68
2023/01/10 11:33:55;;;;;;;24.07;9.03;;;7.30;99.90;;;;;;5088578;28;20035;-68
2023/01/10 11:36:21;;;;;;;27.07;9.60;;;7.30;99.90;;;;;;5095220;28;20048;-68
2023/01/10 11:39:01;;;;;;;25.13;9.80;;;7.30;99.90;;;;;;5092458;28;20108;-69
2023/01/10 11:41:32;;;;;;;27.23;9.63;;;7.40;99.90;;;;;;5094127;28;20052;-72
2023/01/10 11:44:22;;;;;;;25.88;9.00;;;7.40;99.90;;;;;;5095256;28;20048;-68
2023/01/10 11:46:51;;;;;;;26.53;9.20;;;7.30;99.90;;;;;;5094306;28;20036;-68
2023/01/10 11:49:43;;;;;;;25.27;8.67;;;7.30;99.90;;;;;;5085445;28;20048;-68
2023/01/10 11:52:29;;;;;;;27.98;9.63;;;7.30;99.90;;;;;;5077866;28;20048;-68
2023/01/10 11:54:59;;;;;;;24.33;8.50;;;7.30;99.90;;;;;;5075018;28;20071;-68
2023/01/10 11:57:30;;;;;;;26.47;8.17;;;7.30;99.90;;;;;;5079360;28;20337;-67
2023/01/10 12:00:03;;;;;;;24.20;7.93;;;7.30;99.90;;;;;;5079039;28;20145;-67
2023/01/10 12:02:40;;;;;;;21.27;8.90;;;7.30;99.90;;;;;;5076699;28;20036;-68
2023/01/10 12:05:11;;;;;;;30.57;8.70;;;7.40;99.90;;;;;;5079525;28;20102;-68
2023/01/10 12:08:05;;;;;;;25.63;7.80;;;7.30;99.90;;;;;;5078949;28;20044;-68
2023/01/10 12:10:31;;;;;;;30.80;8.17;;;7.30;99.90;;;;;;5080579;28;20618;-68
2023/01/10 12:13:06;;;;;;;20.67;7.43;;;7.30;99.90;;;;;;5079283;28;20063;-68
2023/01/10 12:15:33;;;;;;;27.77;7.70;;;7.30;99.90;;;;;;5078520;28;20040;-68
2023/01/10 12:18:01;;;;;;;23.33;7.00;;;7.30;99.90;;;;;;5079315;28;20044;-68
2023/01/10 12:20:31;;;;;;;22.43;7.23;;;7.30;99.90;;;;;;5077313;28;20036;-67
2023/01/10 12:23:04;;;;;;;22.77;7.20;;;7.30;99.90;;;;;;5081337;28;20557;-68
2023/01/10 12:25:44;;;;;;;26.07;7.07;;;7.30;99.90;;;;;;5079099;28;20036;-68
2023/01/10 12:28:20;;;;;;;20.80;7.23;;;7.30;99.90;;;;;;5080459;28;20478;-68
2023/01/10 12:30:51;;;;;;;20.93;6.63;;;7.30;99.90;;;;;;5080234;28;20036;-68
2023/01/10 12:33:35;;;;;;;28.37;7.17;;;7.20;99.90;;;;;;5078223;28;20048;-68
2023/01/10 12:36:16;;;;;;;27.60;7.27;;;7.20;99.90;;;;;;5081396;28;20082;-68
2023/01/10 12:39:02;;;;;;;25.53;7.07;;;7.20;99.90;;;;;;5079993;28;20047;-68
2023/01/10 12:45:28;;;;;;;21.57;7.77;;;7.20;99.90;;;;;;5081295;28;20044;-68
2023/01/10 12:48:32;;;;;;;23.70;7.87;;;7.20;99.90;;;;;;5070963;28;20085;-67
2023/01/10 12:51:04;;;;;;;25.40;8.20;;;7.10;99.90;;;;;;5036389;28;20052;-68
2023/01/10 12:54:02;;;;;;;22.60;8.20;;;7.10;99.90;;;;;;5077702;28;20077;-68
2023/01/10 12:56:28;;;;;;;26.57;7.00;;;7.10;99.90;;;;;;5080251;28;20113;-67
2023/01/10 12:59:06;;;;;;;24.07;7.80;;;7.10;99.90;;;;;;5069364;28;20047;-75
2023/01/10 13:01:41;;;;;;;25.80;7.47;;;7.00;99.90;;;;;;5080926;28;20071;-68
2023/01/10 13:04:17;;;;;;;21.30;7.43;;;7.00;99.90;;;;;;5078993;28;20048;-67
2023/01/10 13:06:44;;;;;;;25.43;7.27;;;7.00;99.90;;;;;;5046168;22;20073;-83
2023/01/10 13:09:18;;;;;;;19.23;6.73;;;7.00;99.90;;;;;;4991905;28;20038;-83
2023/01/10 13:12:15;;;;;;;19.00;7.13;;;7.00;99.90;;;;;;5020826;28;20049;-83
2023/01/10 13:15:02;;;;;;;26.90;7.20;;;6.90;99.90;;;;;;5005147;28;20485;-83
2023/01/10 13:17:30;;;;;;;25.27;8.13;;;6.90;99.90;;;;;;5023673;28;20084;-84
2023/01/10 13:20:20;;;;;;;23.30;7.73;;;6.90;99.90;;;;;;5021237;28;20050;-84